Aviation Digital Data Service (ADDS)

Output produced by METARs form (1706 UTC 24 April 2017)
found at http://www.aviationweather.gov/adds/metars/
 
TAF DNAA 232150Z 2400/2506 15005KT 9999 FEW009 
     BECMG 2408/2410 26010KT BKN012 
     TEMPO 2415/2419 TS SCT013 FEW020CB 
     FM242000 12008KT 9999 NSW FEW010
       
TAF DNAA 232150Z 2400/2506 15005KT 9999 FEW009 
     BECMG 2408/2410 26010KT BKN012 
     TEMPO 2415/2419 TS SCT013 FEW020CB 
     FM242000 12008KT 9999 NSW FEW010
       
TAF DNCA 240940Z 2412/2518 23007KT 9999 BKN010 FEW020CB 
     TEMPO 2412/2417 TS 
     TEMPO 2413/2416 5000 -TSRA BKN009 FEW019CB 
     BECMG 2418/2420 SCT008
       
TAF DNEN 240940Z 2412/2518 26007KT 9999 BKN012 
     TEMPO 2412/2417 BKN012 FEW021CB 
     TEMPO 2414/2417 TS 
     BECMG 2418/2420 FEW009
       
TAF DNIL 232150Z 2400/2506 18006KT 9999 FEW009 
     TEMPO 2401/2404 BKN008 
     BECMG 2407/2409 23010KT BKN013 
     TEMPO 2415/2420 TS FEW020CB 
     TEMPO 2416/2419 5000 -TSRA BKN009 FN242100 17006KT 9999 NSW FEW010
       
TAF DNIM 240940Z 2412/2518 24006KT 9999 BKN013 FEW020CB 
     TEMPO 2414/2417 TS 
     PROB30 2415/2417 5000 -TSRA BKN009 FEW019CB 
     BECMG 2418/2420 SCT009
       
TAF DNJO 231530Z 2318/2424 30010KT CAVOK 
     BECMG 2318/2320 12015KT
       
TAF DNKA 232150Z 2400/2506 VRB03KT CAVOK 
     BECMG 2407/2409 23010KT 
     TEMPO 2411/2415 BKN015 
     PROB30 
     TEMPO 2417/2420 TS FEW013 FEW023CB 
     FM242100 12006KT CAVOK
       
TAF DNKN 231540Z 2318/2424 08008KT CAVOK 
     TEMPO 2401/2405 22004KT
       
TAF DNMN 232150Z 2400/2506 15004KT CAVOK 
     BECMG 2407/2409 24010KT 
     TEMPO 2410/2416 BKN015 
     PROB40 
     TEMPO 2417/2419 TS FEW013 FEW022CB 
     FM242000 VRB03KT CAVOK
       
DNPO 241600Z 26006KT 8000 TS BKN009 FEW019CB 29/26 Q1008 TEMPO 5000 -TSRA RMK CB(NW-SW)
TAF DNPO 240940Z 2412/2518 21012KT 9999 BKN010 FEW020CB 
     TEMPO 2412/2417 TS 
     TEMPO 2414/2416 5000 -TSRA BKN008 FEW018CB 
     BECMG 2418/2420 VRB02KT SCT009
       
TAF DNAA 232150Z 2400/2506 15005KT 9999 FEW009 
     BECMG 2408/2410 26010KT BKN012 
     TEMPO 2415/2419 TS SCT013 FEW020CB 
     FM242000 12008KT 9999 NSW FEW010
       
TAF DNCA 240940Z 2412/2518 23007KT 9999 BKN010 FEW020CB 
     TEMPO 2412/2417 TS 
     TEMPO 2413/2416 5000 -TSRA BKN009 FEW019CB 
     BECMG 2418/2420 SCT008
       
TAF DNEN 240940Z 2412/2518 26007KT 9999 BKN012 
     TEMPO 2412/2417 BKN012 FEW021CB 
     TEMPO 2414/2417 TS 
     BECMG 2418/2420 FEW009
       
TAF DNIL 232150Z 2400/2506 18006KT 9999 FEW009 
     TEMPO 2401/2404 BKN008 
     BECMG 2407/2409 23010KT BKN013 
     TEMPO 2415/2420 TS FEW020CB 
     TEMPO 2416/2419 5000 -TSRA BKN009 FN242100 17006KT 9999 NSW FEW010
       
TAF DNIM 240940Z 2412/2518 24006KT 9999 BKN013 FEW020CB 
     TEMPO 2414/2417 TS 
     PROB30 2415/2417 5000 -TSRA BKN009 FEW019CB 
     BECMG 2418/2420 SCT009
       
TAF DNJO 231530Z 2318/2424 30010KT CAVOK 
     BECMG 2318/2320 12015KT
       
TAF DNKA 232150Z 2400/2506 VRB03KT CAVOK 
     BECMG 2407/2409 23010KT 
     TEMPO 2411/2415 BKN015 
     PROB30 
     TEMPO 2417/2420 TS FEW013 FEW023CB 
     FM242100 12006KT CAVOK
       
TAF DNKN 231540Z 2318/2424 08008KT CAVOK 
     TEMPO 2401/2405 22004KT
       
TAF DNMN 232150Z 2400/2506 15004KT CAVOK 
     BECMG 2407/2409 24010KT 
     TEMPO 2410/2416 BKN015 
     PROB40 
     TEMPO 2417/2419 TS FEW013 FEW022CB 
     FM242000 VRB03KT CAVOK
       
DNPO 241600Z 26006KT 8000 TS BKN009 FEW019CB 29/26 Q1008 TEMPO 5000 -TSRA RMK CB(NW-SW)
TAF DNPO 240940Z 2412/2518 21012KT 9999 BKN010 FEW020CB 
     TEMPO 2412/2417 TS 
     TEMPO 2414/2416 5000 -TSRA BKN008 FEW018CB 
     BECMG 2418/2420 VRB02KT SCT009
       
TAF DNCA 240940Z 2412/2518 23007KT 9999 BKN010 FEW020CB 
     TEMPO 2412/2417 TS 
     TEMPO 2413/2416 5000 -TSRA BKN009 FEW019CB 
     BECMG 2418/2420 SCT008
       
TAF DNAA 232150Z 2400/2506 15005KT 9999 FEW009 
     BECMG 2408/2410 26010KT BKN012 
     TEMPO 2415/2419 TS SCT013 FEW020CB 
     FM242000 12008KT 9999 NSW FEW010
       
TAF DNCA 240940Z 2412/2518 23007KT 9999 BKN010 FEW020CB 
     TEMPO 2412/2417 TS 
     TEMPO 2413/2416 5000 -TSRA BKN009 FEW019CB 
     BECMG 2418/2420 SCT008
       
TAF DNEN 240940Z 2412/2518 26007KT 9999 BKN012 
     TEMPO 2412/2417 BKN012 FEW021CB 
     TEMPO 2414/2417 TS 
     BECMG 2418/2420 FEW009
       
TAF DNIL 232150Z 2400/2506 18006KT 9999 FEW009 
     TEMPO 2401/2404 BKN008 
     BECMG 2407/2409 23010KT BKN013 
     TEMPO 2415/2420 TS FEW020CB 
     TEMPO 2416/2419 5000 -TSRA BKN009 FN242100 17006KT 9999 NSW FEW010
       
TAF DNIM 240940Z 2412/2518 24006KT 9999 BKN013 FEW020CB 
     TEMPO 2414/2417 TS 
     PROB30 2415/2417 5000 -TSRA BKN009 FEW019CB 
     BECMG 2418/2420 SCT009
       
TAF DNJO 231530Z 2318/2424 30010KT CAVOK 
     BECMG 2318/2320 12015KT
       
TAF DNKA 232150Z 2400/2506 VRB03KT CAVOK 
     BECMG 2407/2409 23010KT 
     TEMPO 2411/2415 BKN015 
     PROB30 
     TEMPO 2417/2420 TS FEW013 FEW023CB 
     FM242100 12006KT CAVOK
       
TAF DNKN 231540Z 2318/2424 08008KT CAVOK 
     TEMPO 2401/2405 22004KT
       
TAF DNMN 232150Z 2400/2506 15004KT CAVOK 
     BECMG 2407/2409 24010KT 
     TEMPO 2410/2416 BKN015 
     PROB40 
     TEMPO 2417/2419 TS FEW013 FEW022CB 
     FM242000 VRB03KT CAVOK
       
DNPO 241600Z 26006KT 8000 TS BKN009 FEW019CB 29/26 Q1008 TEMPO 5000 -TSRA RMK CB(NW-SW)
TAF DNPO 240940Z 2412/2518 21012KT 9999 BKN010 FEW020CB 
     TEMPO 2412/2417 TS 
     TEMPO 2414/2416 5000 -TSRA BKN008 FEW018CB 
     BECMG 2418/2420 VRB02KT SCT009
       
TAF DNEN 240940Z 2412/2518 26007KT 9999 BKN012 
     TEMPO 2412/2417 BKN012 FEW021CB 
     TEMPO 2414/2417 TS 
     BECMG 2418/2420 FEW009
       
TAF DNAA 232150Z 2400/2506 15005KT 9999 FEW009 
     BECMG 2408/2410 26010KT BKN012 
     TEMPO 2415/2419 TS SCT013 FEW020CB 
     FM242000 12008KT 9999 NSW FEW010
       
TAF DNCA 240940Z 2412/2518 23007KT 9999 BKN010 FEW020CB 
     TEMPO 2412/2417 TS 
     TEMPO 2413/2416 5000 -TSRA BKN009 FEW019CB 
     BECMG 2418/2420 SCT008
       
TAF DNEN 240940Z 2412/2518 26007KT 9999 BKN012 
     TEMPO 2412/2417 BKN012 FEW021CB 
     TEMPO 2414/2417 TS 
     BECMG 2418/2420 FEW009
       
TAF DNIL 232150Z 2400/2506 18006KT 9999 FEW009 
     TEMPO 2401/2404 BKN008 
     BECMG 2407/2409 23010KT BKN013 
     TEMPO 2415/2420 TS FEW020CB 
     TEMPO 2416/2419 5000 -TSRA BKN009 FN242100 17006KT 9999 NSW FEW010
       
TAF DNIM 240940Z 2412/2518 24006KT 9999 BKN013 FEW020CB 
     TEMPO 2414/2417 TS 
     PROB30 2415/2417 5000 -TSRA BKN009 FEW019CB 
     BECMG 2418/2420 SCT009
       
TAF DNJO 231530Z 2318/2424 30010KT CAVOK 
     BECMG 2318/2320 12015KT
       
TAF DNKA 232150Z 2400/2506 VRB03KT CAVOK 
     BECMG 2407/2409 23010KT 
     TEMPO 2411/2415 BKN015 
     PROB30 
     TEMPO 2417/2420 TS FEW013 FEW023CB 
     FM242100 12006KT CAVOK
       
TAF DNKN 231540Z 2318/2424 08008KT CAVOK 
     TEMPO 2401/2405 22004KT
       
TAF DNMN 232150Z 2400/2506 15004KT CAVOK 
     BECMG 2407/2409 24010KT 
     TEMPO 2410/2416 BKN015 
     PROB40 
     TEMPO 2417/2419 TS FEW013 FEW022CB 
     FM242000 VRB03KT CAVOK
       
DNPO 241600Z 26006KT 8000 TS BKN009 FEW019CB 29/26 Q1008 TEMPO 5000 -TSRA RMK CB(NW-SW)
TAF DNPO 240940Z 2412/2518 21012KT 9999 BKN010 FEW020CB 
     TEMPO 2412/2417 TS 
     TEMPO 2414/2416 5000 -TSRA BKN008 FEW018CB 
     BECMG 2418/2420 VRB02KT SCT009
       
TAF DNIL 232150Z 2400/2506 18006KT 9999 FEW009 
     TEMPO 2401/2404 BKN008 
     BECMG 2407/2409 23010KT BKN013 
     TEMPO 2415/2420 TS FEW020CB 
     TEMPO 2416/2419 5000 -TSRA BKN009 FN242100 17006KT 9999 NSW FEW010
       
TAF DNJO 231530Z 2318/2424 30010KT CAVOK 
     BECMG 2318/2320 12015KT
       
TAF DNKA 232150Z 2400/2506 VRB03KT CAVOK 
     BECMG 2407/2409 23010KT 
     TEMPO 2411/2415 BKN015 
     PROB30 
     TEMPO 2417/2420 TS FEW013 FEW023CB 
     FM242100 12006KT CAVOK
       
TAF DNKN 231540Z 2318/2424 08008KT CAVOK 
     TEMPO 2401/2405 22004KT
       
TAF DNMN 232150Z 2400/2506 15004KT CAVOK 
     BECMG 2407/2409 24010KT 
     TEMPO 2410/2416 BKN015 
     PROB40 
     TEMPO 2417/2419 TS FEW013 FEW022CB 
     FM242000 VRB03KT CAVOK
       
DNPO 241600Z 26006KT 8000 TS BKN009 FEW019CB 29/26 Q1008 TEMPO 5000 -TSRA RMK CB(NW-SW)
TAF DNPO 240940Z 2412/2518 21012KT 9999 BKN010 FEW020CB 
     TEMPO 2412/2417 TS 
     TEMPO 2414/2416 5000 -TSRA BKN008 FEW018CB 
     BECMG 2418/2420 VRB02KT SCT009